sensor_id;sensor_type;location;lat;lon;timestamp;pressure;altitude;pressure_sealevel;temperature;humidity
40692;BME280;26377;53.344;14.886;2022-09-09T00:09:47;100796.70;;;17.27;69.67
40692;BME280;26377;53.344;14.886;2022-09-09T00:15:21;100802.07;;;17.27;69.71
40692;BME280;26377;53.344;14.886;2022-09-09T00:20:48;100799.00;;;17.26;69.65
40692;BME280;26377;53.344;14.886;2022-09-09T00:23:35;100796.83;;;17.25;69.59
40692;BME280;26377;53.344;14.886;2022-09-09T00:29:22;100803.04;;;17.20;69.56
40692;BME280;26377;53.344;14.886;2022-09-09T00:31:51;100793.14;;;17.21;69.64
40692;BME280;26377;53.344;14.886;2022-09-09T00:34:28;100797.92;;;17.23;69.63
40692;BME280;26377;53.344;14.886;2022-09-09T00:36:58;100793.54;;;17.22;69.62
40692;BME280;26377;53.344;14.886;2022-09-09T00:39:41;100792.91;;;17.24;69.60
40692;BME280;26377;53.344;14.886;2022-09-09T00:42:27;100791.58;;;17.24;69.60
40692;BME280;26377;53.344;14.886;2022-09-09T00:48:07;100795.12;;;17.24;69.59
40692;BME280;26377;53.344;14.886;2022-09-09T00:50:53;100798.16;;;17.25;69.59
40692;BME280;26377;53.344;14.886;2022-09-09T00:53:58;100799.14;;;17.24;69.58
40692;BME280;26377;53.344;14.886;2022-09-09T00:56:42;100800.48;;;17.24;69.57
40692;BME280;26377;53.344;14.886;2022-09-09T00:59:25;100806.69;;;17.25;69.60
40692;BME280;26377;53.344;14.886;2022-09-09T01:01:54;100812.55;;;17.24;69.57
40692;BME280;26377;53.344;14.886;2022-09-09T01:04:34;100815.23;;;17.24;69.58
40692;BME280;26377;53.344;14.886;2022-09-09T01:07:03;100819.02;;;17.22;69.54
40692;BME280;26377;53.344;14.886;2022-09-09T01:12:23;100810.84;;;17.18;69.50
40692;BME280;26377;53.344;14.886;2022-09-09T01:18:03;100816.31;;;17.16;69.50
40692;BME280;26377;53.344;14.886;2022-09-09T01:20:39;100814.22;;;17.14;69.52
40692;BME280;26377;53.344;14.886;2022-09-09T01:29:08;100817.63;;;17.11;69.46
40692;BME280;26377;53.344;14.886;2022-09-09T01:31:52;100826.30;;;17.09;69.42
40692;BME280;26377;53.344;14.886;2022-09-09T01:34:37;100823.48;;;17.05;69.42
40692;BME280;26377;53.344;14.886;2022-09-09T01:37:09;100827.37;;;17.01;69.38
40692;BME280;26377;53.344;14.886;2022-09-09T01:39:42;100833.34;;;16.99;69.40
40692;BME280;26377;53.344;14.886;2022-09-09T01:42:16;100830.78;;;16.97;69.42
40692;BME280;26377;53.344;14.886;2022-09-09T01:44:45;100831.61;;;16.98;69.48
40692;BME280;26377;53.344;14.886;2022-09-09T01:47:14;100839.30;;;16.97;69.47
40692;BME280;26377;53.344;14.886;2022-09-09T01:49:43;100835.78;;;16.96;69.50
40692;BME280;26377;53.344;14.886;2022-09-09T01:52:13;100836.03;;;16.99;69.56
40692;BME280;26377;53.344;14.886;2022-09-09T01:54:44;100835.88;;;17.00;69.56
40692;BME280;26377;53.344;14.886;2022-09-09T01:57:26;100832.25;;;17.01;69.57
40692;BME280;26377;53.344;14.886;2022-09-09T02:00:07;100836.64;;;17.02;69.59
40692;BME280;26377;53.344;14.886;2022-09-09T02:05:49;100843.92;;;17.00;69.53
40692;BME280;26377;53.344;14.886;2022-09-09T02:08:42;100845.16;;;16.96;69.51
40692;BME280;26377;53.344;14.886;2022-09-09T02:11:20;100842.23;;;16.94;69.53
40692;BME280;26377;53.344;14.886;2022-09-09T02:13:51;100844.63;;;16.91;69.50
40692;BME280;26377;53.344;14.886;2022-09-09T02:16:37;100840.36;;;16.89;69.51
40692;BME280;26377;53.344;14.886;2022-09-09T02:19:35;100837.82;;;16.87;69.49
40692;BME280;26377;53.344;14.886;2022-09-09T02:22:09;100842.94;;;16.85;69.49
40692;BME280;26377;53.344;14.886;2022-09-09T02:24:39;100840.00;;;16.82;69.52
40692;BME280;26377;53.344;14.886;2022-09-09T02:27:13;100836.45;;;16.82;69.57
40692;BME280;26377;53.344;14.886;2022-09-09T02:29:45;100830.73;;;16.81;69.57
40692;BME280;26377;53.344;14.886;2022-09-09T02:32:16;100833.16;;;16.78;69.45
40692;BME280;26377;53.344;14.886;2022-09-09T02:34:49;100837.52;;;16.74;69.42
40692;BME280;26377;53.344;14.886;2022-09-09T02:37:25;100843.23;;;16.69;69.38
40692;BME280;26377;53.344;14.886;2022-09-09T02:39:59;100850.27;;;16.65;69.36
40692;BME280;26377;53.344;14.886;2022-09-09T02:42:28;100850.73;;;16.59;69.26
40692;BME280;26377;53.344;14.886;2022-09-09T02:44:56;100854.83;;;16.52;69.23
40692;BME280;26377;53.344;14.886;2022-09-09T02:50:23;100849.07;;;16.40;69.20
40692;BME280;26377;53.344;14.886;2022-09-09T02:53:23;100858.38;;;16.34;69.14
40692;BME280;26377;53.344;14.886;2022-09-09T02:58:25;100857.34;;;16.24;69.21
40692;BME280;26377;53.344;14.886;2022-09-09T03:00:59;100855.39;;;16.21;69.25
40692;BME280;26377;53.344;14.886;2022-09-09T03:03:31;100857.30;;;16.19;69.30
40692;BME280;26377;53.344;14.886;2022-09-09T03:06:01;100854.37;;;16.16;69.33
40692;BME280;26377;53.344;14.886;2022-09-09T03:08:29;100860.55;;;16.11;69.32
40692;BME280;26377;53.344;14.886;2022-09-09T03:10:59;100854.57;;;16.08;69.33
40692;BME280;26377;53.344;14.886;2022-09-09T03:13:31;100861.11;;;16.04;69.30
40692;BME280;26377;53.344;14.886;2022-09-09T03:15:58;100861.93;;;15.99;69.33
40692;BME280;26377;53.344;14.886;2022-09-09T03:18:27;100862.14;;;15.96;69.39
40692;BME280;26377;53.344;14.886;2022-09-09T03:20:56;100867.73;;;15.93;69.37
40692;BME280;26377;53.344;14.886;2022-09-09T03:23:26;100863.46;;;15.90;69.45
40692;BME280;26377;53.344;14.886;2022-09-09T03:26:00;100862.70;;;15.88;69.54
40692;BME280;26377;53.344;14.886;2022-09-09T03:28:29;100854.91;;;15.85;69.52
40692;BME280;26377;53.344;14.886;2022-09-09T03:31:05;100863.52;;;15.83;69.54
40692;BME280;26377;53.344;14.886;2022-09-09T03:33:34;100866.80;;;15.81;69.55
40692;BME280;26377;53.344;14.886;2022-09-09T03:36:04;100864.80;;;15.78;69.58
40692;BME280;26377;53.344;14.886;2022-09-09T03:38:34;100868.69;;;15.74;69.54
40692;BME280;26377;53.344;14.886;2022-09-09T03:41:02;100869.00;;;15.69;69.60
40692;BME280;26377;53.344;14.886;2022-09-09T03:43:30;100867.03;;;15.66;69.62
40692;BME280;26377;53.344;14.886;2022-09-09T03:45:59;100872.59;;;15.63;69.68
40692;BME280;26377;53.344;14.886;2022-09-09T03:48:29;100876.80;;;15.60;69.69
40692;BME280;26377;53.344;14.886;2022-09-09T03:50:56;100871.19;;;15.57;69.76
40692;BME280;26377;53.344;14.886;2022-09-09T03:53:25;100871.33;;;15.56;69.84
40692;BME280;26377;53.344;14.886;2022-09-09T03:55:56;100875.91;;;15.54;69.83
40692;BME280;26377;53.344;14.886;2022-09-09T03:58:27;100876.61;;;15.50;69.81
40692;BME280;26377;53.344;14.886;2022-09-09T04:00:58;100873.78;;;15.46;69.80
40692;BME280;26377;53.344;14.886;2022-09-09T04:03:29;100870.47;;;15.43;69.77
40692;BME280;26377;53.344;14.886;2022-09-09T04:06:03;100873.45;;;15.38;69.76
40692;BME280;26377;53.344;14.886;2022-09-09T04:08:35;100876.46;;;15.34;69.78
40692;BME280;26377;53.344;14.886;2022-09-09T04:11:03;100878.94;;;15.30;69.81
40692;BME280;26377;53.344;14.886;2022-09-09T04:13:35;100882.67;;;15.27;69.80
40692;BME280;26377;53.344;14.886;2022-09-09T04:16:06;100878.87;;;15.24;69.92
40692;BME280;26377;53.344;14.886;2022-09-09T04:18:36;100873.09;;;15.18;70.01
40692;BME280;26377;53.344;14.886;2022-09-09T04:21:05;100882.58;;;15.16;70.00
40692;BME280;26377;53.344;14.886;2022-09-09T04:23:33;100880.10;;;15.13;70.04
40692;BME280;26377;53.344;14.886;2022-09-09T04:26:02;100885.08;;;15.12;70.08
40692;BME280;26377;53.344;14.886;2022-09-09T04:28:35;100883.84;;;15.11;70.13
40692;BME280;26377;53.344;14.886;2022-09-09T04:31:10;100883.07;;;15.09;70.18
40692;BME280;26377;53.344;14.886;2022-09-09T04:33:41;100881.37;;;15.08;70.25
40692;BME280;26377;53.344;14.886;2022-09-09T04:36:10;100888.05;;;15.08;70.32
40692;BME280;26377;53.344;14.886;2022-09-09T04:38:39;100888.15;;;15.06;70.37
40692;BME280;26377;53.344;14.886;2022-09-09T04:41:10;100891.31;;;15.06;70.44
40692;BME280;26377;53.344;14.886;2022-09-09T04:43:41;100884.27;;;15.05;70.50
40692;BME280;26377;53.344;14.886;2022-09-09T04:46:09;100894.36;;;15.07;70.62
40692;BME280;26377;53.344;14.886;2022-09-09T04:48:36;100903.02;;;15.10;70.74
40692;BME280;26377;53.344;14.886;2022-09-09T04:51:05;100905.48;;;15.13;70.82
40692;BME280;26377;53.344;14.886;2022-09-09T04:53:36;100908.33;;;15.17;70.93
40692;BME280;26377;53.344;14.886;2022-09-09T04:56:10;100900.85;;;15.22;71.08
40692;BME280;26377;53.344;14.886;2022-09-09T04:58:45;100900.42;;;15.28;71.23
40692;BME280;26377;53.344;14.886;2022-09-09T05:01:15;100896.41;;;15.35;71.39
40692;BME280;26377;53.344;14.886;2022-09-09T05:03:46;100900.72;;;15.43;71.53
40692;BME280;26377;53.344;14.886;2022-09-09T05:06:18;100908.59;;;15.52;71.62
40692;BME280;26377;53.344;14.886;2022-09-09T05:08:51;100897.36;;;15.59;71.72
40692;BME280;26377;53.344;14.886;2022-09-09T05:11:27;100901.70;;;15.67;71.78
40692;BME280;26377;53.344;14.886;2022-09-09T05:13:57;100896.77;;;15.74;71.76
40692;BME280;26377;53.344;14.886;2022-09-09T05:16:28;100895.45;;;15.79;71.75
40692;BME280;26377;53.344;14.886;2022-09-09T05:18:58;100895.05;;;15.85;71.75
40692;BME280;26377;53.344;14.886;2022-09-09T05:21:29;100907.61;;;15.90;71.72
40692;BME280;26377;53.344;14.886;2022-09-09T05:23:58;100912.14;;;15.95;71.77
40692;BME280;26377;53.344;14.886;2022-09-09T05:26:27;100909.62;;;15.99;71.79
40692;BME280;26377;53.344;14.886;2022-09-09T05:28:58;100905.16;;;16.05;71.87
40692;BME280;26377;53.344;14.886;2022-09-09T05:31:30;100914.84;;;16.13;71.96
40692;BME280;26377;53.344;14.886;2022-09-09T05:33:59;100912.55;;;16.20;71.97
40692;BME280;26377;53.344;14.886;2022-09-09T05:36:27;100917.95;;;16.25;71.98
40692;BME280;26377;53.344;14.886;2022-09-09T05:38:56;100919.91;;;16.29;72.01
40692;BME280;26377;53.344;14.886;2022-09-09T05:41:24;100917.78;;;16.34;72.08
40692;BME280;26377;53.344;14.886;2022-09-09T05:43:53;100920.03;;;16.40;72.11
40692;BME280;26377;53.344;14.886;2022-09-09T05:46:24;100918.23;;;16.46;72.16
40692;BME280;26377;53.344;14.886;2022-09-09T05:48:53;100912.92;;;16.51;72.17
40692;BME280;26377;53.344;14.886;2022-09-09T05:51:25;100919.15;;;16.57;72.20
40692;BME280;26377;53.344;14.886;2022-09-09T05:53:56;100931.35;;;16.61;72.20
40692;BME280;26377;53.344;14.886;2022-09-09T05:56:28;100934.28;;;16.64;72.15
40692;BME280;26377;53.344;14.886;2022-09-09T05:58:58;100940.98;;;16.64;72.07
40692;BME280;26377;53.344;14.886;2022-09-09T06:01:29;100936.97;;;16.64;72.03
40692;BME280;26377;53.344;14.886;2022-09-09T06:03:59;100945.36;;;16.65;71.99
40692;BME280;26377;53.344;14.886;2022-09-09T06:06:33;100947.68;;;16.64;71.93
40692;BME280;26377;53.344;14.886;2022-09-09T06:09:04;100941.96;;;16.63;71.90
40692;BME280;26377;53.344;14.886;2022-09-09T06:11:36;100940.98;;;16.64;71.89
40692;BME280;26377;53.344;14.886;2022-09-09T06:14:05;100945.11;;;16.62;71.83
40692;BME280;26377;53.344;14.886;2022-09-09T06:16:34;100941.09;;;16.62;71.84
40692;BME280;26377;53.344;14.886;2022-09-09T06:19:05;100951.23;;;16.64;71.91
40692;BME280;26377;53.344;14.886;2022-09-09T06:21:35;100955.00;;;16.67;71.93
40692;BME280;26377;53.344;14.886;2022-09-09T06:24:08;100955.04;;;16.73;72.02
40692;BME280;26377;53.344;14.886;2022-09-09T06:26:37;100956.53;;;16.77;72.01
40692;BME280;26377;53.344;14.886;2022-09-09T06:29:08;100959.46;;;16.79;72.00
40692;BME280;26377;53.344;14.886;2022-09-09T06:31:38;100967.75;;;16.82;71.98
40692;BME280;26377;53.344;14.886;2022-09-09T06:34:08;100958.48;;;16.80;71.91
40692;BME280;26377;53.344;14.886;2022-09-09T06:36:39;100962.86;;;16.81;71.94
40692;BME280;26377;53.344;14.886;2022-09-09T06:39:07;100959.10;;;16.84;71.95
40692;BME280;26377;53.344;14.886;2022-09-09T06:41:36;100964.24;;;16.87;71.99
40692;BME280;26377;53.344;14.886;2022-09-09T06:44:06;100967.91;;;16.91;72.02
40692;BME280;26377;53.344;14.886;2022-09-09T06:46:35;100964.53;;;16.95;72.00
40692;BME280;26377;53.344;14.886;2022-09-09T06:49:02;100972.72;;;16.99;72.00
40692;BME280;26377;53.344;14.886;2022-09-09T06:51:36;100974.67;;;17.02;72.02
40692;BME280;26377;53.344;14.886;2022-09-09T06:54:06;100974.31;;;17.07;71.98
40692;BME280;26377;53.344;14.886;2022-09-09T06:56:39;100981.67;;;17.10;72.02
40692;BME280;26377;53.344;14.886;2022-09-09T06:59:11;100976.92;;;17.14;72.04
40692;BME280;26377;53.344;14.886;2022-09-09T07:01:41;100977.42;;;17.19;71.95
40692;BME280;26377;53.344;14.886;2022-09-09T07:04:12;100979.27;;;17.24;72.00
40692;BME280;26377;53.344;14.886;2022-09-09T07:06:44;100973.57;;;17.28;71.96
40692;BME280;26377;53.344;14.886;2022-09-09T07:09:16;100983.21;;;17.31;71.89
40692;BME280;26377;53.344;14.886;2022-09-09T07:11:48;100987.34;;;17.35;71.93
40692;BME280;26377;53.344;14.886;2022-09-09T07:14:21;100985.22;;;17.40;71.95
40692;BME280;26377;53.344;14.886;2022-09-09T07:16:51;100981.20;;;17.45;71.93
40692;BME280;26377;53.344;14.886;2022-09-09T07:19:20;100977.08;;;17.52;72.00
40692;BME280;26377;53.344;14.886;2022-09-09T07:21:49;100976.84;;;17.61;72.01
40692;BME280;26377;53.344;14.886;2022-09-09T07:24:18;100980.16;;;17.70;72.00
40692;BME280;26377;53.344;14.886;2022-09-09T07:26:47;100987.97;;;17.78;72.01
40692;BME280;26377;53.344;14.886;2022-09-09T07:29:16;100988.23;;;17.86;71.98
40692;BME280;26377;53.344;14.886;2022-09-09T07:31:43;100986.80;;;17.93;71.95
40692;BME280;26377;53.344;14.886;2022-09-09T07:34:12;100986.66;;;18.00;71.89
40692;BME280;26377;53.344;14.886;2022-09-09T07:36:40;100986.31;;;18.05;71.71
40692;BME280;26377;53.344;14.886;2022-09-09T07:39:11;100991.19;;;18.11;71.67
40692;BME280;26377;53.344;14.886;2022-09-09T07:41:44;100984.60;;;18.15;71.56
40692;BME280;26377;53.344;14.886;2022-09-09T07:44:17;100994.38;;;18.21;71.56
40692;BME280;26377;53.344;14.886;2022-09-09T07:46:50;100990.80;;;18.32;71.68
40692;BME280;26377;53.344;14.886;2022-09-09T07:49:19;101000.10;;;18.55;71.65
40692;BME280;26377;53.344;14.886;2022-09-09T07:51:47;101000.10;;;18.55;71.65
40692;BME280;26377;53.344;14.886;2022-09-09T07:54:18;101000.34;;;18.63;71.41
40692;BME280;26377;53.344;14.886;2022-09-09T07:56:51;100994.58;;;18.68;71.24
40692;BME280;26377;53.344;14.886;2022-09-09T07:59:20;101006.16;;;18.79;71.24
40692;BME280;26377;53.344;14.886;2022-09-09T08:01:50;101003.34;;;18.86;71.17
40692;BME280;26377;53.344;14.886;2022-09-09T08:04:24;101000.14;;;18.92;71.03
40692;BME280;26377;53.344;14.886;2022-09-09T08:06:59;101006.46;;;19.02;70.91
40692;BME280;26377;53.344;14.886;2022-09-09T08:09:30;101006.33;;;19.09;70.80
40692;BME280;26377;53.344;14.886;2022-09-09T08:12:01;101004.36;;;19.11;70.76
40692;BME280;26377;53.344;14.886;2022-09-09T08:14:29;101013.50;;;19.25;70.71
40692;BME280;26377;53.344;14.886;2022-09-09T08:16:56;101007.86;;;19.34;70.70
40692;BME280;26377;53.344;14.886;2022-09-09T08:19:26;101007.69;;;19.41;70.46
40692;BME280;26377;53.344;14.886;2022-09-09T08:21:55;101008.13;;;19.51;70.47
40692;BME280;26377;53.344;14.886;2022-09-09T08:24:23;101009.30;;;19.58;70.38
40692;BME280;26377;53.344;14.886;2022-09-09T08:26:53;101015.41;;;19.66;70.17
40692;BME280;26377;53.344;14.886;2022-09-09T08:29:23;101007.40;;;19.70;70.01
40692;BME280;26377;53.344;14.886;2022-09-09T08:31:56;101009.20;;;19.75;69.85
40692;BME280;26377;53.344;14.886;2022-09-09T08:34:25;101001.97;;;19.81;69.81
40692;BME280;26377;53.344;14.886;2022-09-09T08:36:54;101006.91;;;19.91;69.74
40692;BME280;26377;53.344;14.886;2022-09-09T08:39:26;101012.81;;;20.05;69.74
40692;BME280;26377;53.344;14.886;2022-09-09T08:50:35;101019.99;;;20.55;68.95
40692;BME280;26377;53.344;14.886;2022-09-09T08:53:23;101019.00;;;20.71;68.80
40692;BME280;26377;53.344;14.886;2022-09-09T08:56:01;101017.47;;;20.88;68.77
40692;BME280;26377;53.344;14.886;2022-09-09T08:58:55;101013.97;;;21.06;68.50
40692;BME280;26377;53.344;14.886;2022-09-09T09:08:08;101024.43;;;21.43;67.58
40692;BME280;26377;53.344;14.886;2022-09-09T09:13:39;101016.66;;;21.69;67.12
40692;BME280;26377;53.344;14.886;2022-09-09T09:16:43;101012.19;;;21.87;66.82
40692;BME280;26377;53.344;14.886;2022-09-09T09:19:28;101012.84;;;21.94;66.48
40692;BME280;26377;53.344;14.886;2022-09-09T09:30:25;101011.56;;;22.35;65.67
40692;BME280;26377;53.344;14.886;2022-09-09T09:33:05;101019.16;;;22.45;65.41
40692;BME280;26377;53.344;14.886;2022-09-09T09:35:30;101015.86;;;22.51;64.90
40692;BME280;26377;53.344;14.886;2022-09-09T09:37:59;101015.10;;;22.59;64.85
40692;BME280;26377;53.344;14.886;2022-09-09T09:40:29;101017.97;;;22.71;64.74
40692;BME280;26377;53.344;14.886;2022-09-09T09:43:00;101017.41;;;22.81;64.47
40692;BME280;26377;53.344;14.886;2022-09-09T09:45:42;101021.86;;;22.86;64.00
40692;BME280;26377;53.344;14.886;2022-09-09T09:48:14;101019.28;;;22.80;64.00
40692;BME280;26377;53.344;14.886;2022-09-09T09:53:33;101020.41;;;22.91;63.83
40692;BME280;26377;53.344;14.886;2022-09-09T10:01:24;101017.89;;;23.21;63.26
40692;BME280;26377;53.344;14.886;2022-09-09T10:03:59;101017.20;;;23.36;63.20
40692;BME280;26377;53.344;14.886;2022-09-09T10:06:34;101017.45;;;23.47;62.88
40692;BME280;26377;53.344;14.886;2022-09-09T10:09:04;101022.80;;;23.56;62.78
40692;BME280;26377;53.344;14.886;2022-09-09T10:26:35;101022.81;;;23.39;61.74
40692;BME280;26377;53.344;14.886;2022-09-09T10:35:29;101031.41;;;23.56;61.85
40692;BME280;26377;53.344;14.886;2022-09-09T10:41:00;101024.33;;;23.94;61.64
40692;BME280;26377;53.344;14.886;2022-09-09T10:44:11;101025.84;;;24.18;61.48
40692;BME280;26377;53.344;14.886;2022-09-09T10:49:53;101026.56;;;24.57;60.98
40692;BME280;26377;53.344;14.886;2022-09-09T10:55:35;101028.73;;;24.87;60.36
40692;BME280;26377;53.344;14.886;2022-09-09T10:58:05;101023.69;;;24.92;60.14
40692;BME280;26377;53.344;14.886;2022-09-09T11:00:44;101028.11;;;25.05;59.94
40692;BME280;26377;53.344;14.886;2022-09-09T11:03:31;101024.75;;;25.11;59.63
40692;BME280;26377;53.344;14.886;2022-09-09T11:06:04;101027.14;;;25.22;59.44
40692;BME280;26377;53.344;14.886;2022-09-09T11:08:38;101027.37;;;25.37;59.33
40692;BME280;26377;53.344;14.886;2022-09-09T11:11:25;101025.35;;;25.51;59.04
40692;BME280;26377;53.344;14.886;2022-09-09T11:14:15;101020.92;;;25.58;58.78
40692;BME280;26377;53.344;14.886;2022-09-09T11:17:06;101020.59;;;25.61;58.49
40692;BME280;26377;53.344;14.886;2022-09-09T11:19:41;101020.44;;;25.62;58.21
40692;BME280;26377;53.344;14.886;2022-09-09T11:34:20;101017.03;;;25.96;56.38
40692;BME280;26377;53.344;14.886;2022-09-09T11:37:16;101019.42;;;25.75;56.04
40692;BME280;26377;53.344;14.886;2022-09-09T11:40:09;101024.67;;;25.61;55.73
40692;BME280;26377;53.344;14.886;2022-09-09T11:42:42;101020.58;;;25.49;55.50
40692;BME280;26377;53.344;14.886;2022-09-09T11:45:22;101023.83;;;25.48;55.49
40692;BME280;26377;53.344;14.886;2022-09-09T11:47:54;101025.02;;;25.50;55.43
40692;BME280;26377;53.344;14.886;2022-09-09T11:53:19;101020.09;;;26.01;55.55
40692;BME280;26377;53.344;14.886;2022-09-09T11:56:10;101017.34;;;26.21;55.34
40692;BME280;26377;53.344;14.886;2022-09-09T11:58:53;101017.36;;;26.09;54.58
40692;BME280;26377;53.344;14.886;2022-09-09T12:01:41;101025.36;;;25.87;54.25
40692;BME280;26377;53.344;14.886;2022-09-09T12:07:00;101025.02;;;25.46;53.85
40692;BME280;26377;53.344;14.886;2022-09-09T12:12:27;101021.38;;;25.21;53.94
40692;BME280;26377;53.344;14.886;2022-09-09T12:17:43;101015.50;;;25.46;54.37
40692;BME280;26377;53.344;14.886;2022-09-09T12:25:53;101006.30;;;26.73;54.20
40692;BME280;26377;53.344;14.886;2022-09-09T12:28:44;101001.74;;;27.00;53.73
40692;BME280;26377;53.344;14.886;2022-09-09T12:33:52;100998.17;;;27.53;53.02
40692;BME280;26377;53.344;14.886;2022-09-09T12:36:27;100998.23;;;27.63;52.39
40692;BME280;26377;53.344;14.886;2022-09-09T12:38:58;101003.95;;;27.72;52.08
40692;BME280;26377;53.344;14.886;2022-09-09T12:41:29;101004.23;;;27.81;51.63
40692;BME280;26377;53.344;14.886;2022-09-09T12:44:08;100995.73;;;27.76;51.12
40692;BME280;26377;53.344;14.886;2022-09-09T12:46:41;100985.48;;;27.60;50.58
40692;BME280;26377;53.344;14.886;2022-09-09T12:52:07;100991.59;;;27.62;50.39
40692;BME280;26377;53.344;14.886;2022-09-09T12:54:37;100988.19;;;27.64;49.99
40692;BME280;26377;53.344;14.886;2022-09-09T12:57:05;100995.30;;;27.69;49.95
40692;BME280;26377;53.344;14.886;2022-09-09T12:59:38;100996.54;;;27.62;49.54
40692;BME280;26377;53.344;14.886;2022-09-09T13:02:19;100996.54;;;27.44;49.38
40692;BME280;26377;53.344;14.886;2022-09-09T13:04:51;100991.82;;;27.34;49.03
40692;BME280;26377;53.344;14.886;2022-09-09T13:07:20;100990.48;;;26.99;48.79
40692;BME280;26377;53.344;14.886;2022-09-09T13:09:48;100994.73;;;26.71;48.85
40692;BME280;26377;53.344;14.886;2022-09-09T13:12:19;100989.68;;;26.52;48.96
40692;BME280;26377;53.344;14.886;2022-09-09T13:14:53;100997.42;;;26.33;48.96
40692;BME280;26377;53.344;14.886;2022-09-09T13:17:24;100987.78;;;26.10;48.98
40692;BME280;26377;53.344;14.886;2022-09-09T13:19:56;100985.94;;;25.99;49.09
40692;BME280;26377;53.344;14.886;2022-09-09T13:27:41;100986.44;;;25.78;49.39
40692;BME280;26377;53.344;14.886;2022-09-09T13:35:59;100974.05;;;26.54;49.71
40692;BME280;26377;53.344;14.886;2022-09-09T13:38:28;100973.84;;;26.56;49.63
40692;BME280;26377;53.344;14.886;2022-09-09T13:41:05;100976.33;;;26.81;49.55
40692;BME280;26377;53.344;14.886;2022-09-09T13:43:38;100969.16;;;26.80;49.12
40692;BME280;26377;53.344;14.886;2022-09-09T13:46:38;100969.07;;;26.70;49.07
40692;BME280;26377;53.344;14.886;2022-09-09T13:51:44;100968.09;;;26.89;48.60
40692;BME280;26377;53.344;14.886;2022-09-09T13:54:18;100966.91;;;26.88;48.52
40692;BME280;26377;53.344;14.886;2022-09-09T13:56:47;100964.98;;;27.00;48.46
40692;BME280;26377;53.344;14.886;2022-09-09T13:59:19;100957.56;;;27.13;48.35
40692;BME280;26377;53.344;14.886;2022-09-09T14:01:49;100956.84;;;27.23;48.13
40692;BME280;26377;53.344;14.886;2022-09-09T14:04:18;100956.04;;;27.18;47.90
40692;BME280;26377;53.344;14.886;2022-09-09T14:06:50;100960.66;;;27.06;47.80
40692;BME280;26377;53.344;14.886;2022-09-09T14:09:18;100956.34;;;26.93;47.71
40692;BME280;26377;53.344;14.886;2022-09-09T14:11:47;100952.84;;;26.76;47.53
40692;BME280;26377;53.344;14.886;2022-09-09T14:14:14;100952.46;;;26.57;47.39
40692;BME280;26377;53.344;14.886;2022-09-09T14:16:43;100948.16;;;26.62;47.45
40692;BME280;26377;53.344;14.886;2022-09-09T14:19:12;100948.97;;;26.75;47.60
40692;BME280;26377;53.344;14.886;2022-09-09T14:21:39;100945.17;;;26.84;47.41
40692;BME280;26377;53.344;14.886;2022-09-09T14:24:08;100944.84;;;26.79;47.32
40692;BME280;26377;53.344;14.886;2022-09-09T14:26:35;100948.75;;;26.80;47.24
40692;BME280;26377;53.344;14.886;2022-09-09T14:29:03;100954.05;;;26.74;47.08
40692;BME280;26377;53.344;14.886;2022-09-09T14:31:30;100944.63;;;26.58;46.98
40692;BME280;26377;53.344;14.886;2022-09-09T14:33:59;100945.50;;;26.46;46.87
40692;BME280;26377;53.344;14.886;2022-09-09T14:36:27;100942.64;;;26.36;46.92
40692;BME280;26377;53.344;14.886;2022-09-09T14:38:54;100941.52;;;26.22;46.92
40692;BME280;26377;53.344;14.886;2022-09-09T14:41:21;100941.92;;;26.03;46.84
40692;BME280;26377;53.344;14.886;2022-09-09T14:43:48;100945.34;;;25.85;46.93
40692;BME280;26377;53.344;14.886;2022-09-09T14:46:17;100944.52;;;25.69;46.98
40692;BME280;26377;53.344;14.886;2022-09-09T14:48:49;100937.55;;;25.54;47.11
40692;BME280;26377;53.344;14.886;2022-09-09T14:51:19;100937.74;;;25.37;47.19
40692;BME280;26377;53.344;14.886;2022-09-09T14:53:54;100938.22;;;25.20;47.28
40692;BME280;26377;53.344;14.886;2022-09-09T14:56:25;100937.69;;;25.05;47.39
40692;BME280;26377;53.344;14.886;2022-09-09T14:58:56;100939.02;;;24.97;47.63
40692;BME280;26377;53.344;14.886;2022-09-09T15:01:28;100935.47;;;25.04;47.92
40692;BME280;26377;53.344;14.886;2022-09-09T15:03:59;100938.55;;;25.17;48.15
40692;BME280;26377;53.344;14.886;2022-09-09T15:06:29;100936.88;;;25.32;48.27
40692;BME280;26377;53.344;14.886;2022-09-09T15:09:00;100937.22;;;25.45;48.30
40692;BME280;26377;53.344;14.886;2022-09-09T15:11:33;100931.27;;;25.58;48.29
40692;BME280;26377;53.344;14.886;2022-09-09T15:14:02;100926.85;;;25.69;48.30
40692;BME280;26377;53.344;14.886;2022-09-09T15:16:29;100930.39;;;25.73;48.20
40692;BME280;26377;53.344;14.886;2022-09-09T15:19:00;100935.33;;;25.78;48.09
40692;BME280;26377;53.344;14.886;2022-09-09T15:21:34;100934.13;;;25.80;48.07
40692;BME280;26377;53.344;14.886;2022-09-09T15:24:01;100939.41;;;25.78;47.91
40692;BME280;26377;53.344;14.886;2022-09-09T15:26:30;100939.91;;;25.73;47.74
40692;BME280;26377;53.344;14.886;2022-09-09T15:28:59;100940.23;;;25.70;47.80
40692;BME280;26377;53.344;14.886;2022-09-09T15:31:29;100943.98;;;25.69;47.74
40692;BME280;26377;53.344;14.886;2022-09-09T15:33:59;100940.11;;;25.64;47.69
40692;BME280;26377;53.344;14.886;2022-09-09T15:39:06;100945.04;;;25.48;47.65
40692;BME280;26377;53.344;14.886;2022-09-09T15:41:36;100950.46;;;25.36;47.62
40692;BME280;26377;53.344;14.886;2022-09-09T15:44:03;100949.29;;;25.27;47.66
40692;BME280;26377;53.344;14.886;2022-09-09T15:46:35;100951.78;;;25.16;47.74